Time;durP1;ratioP1;P1;durP2;ratioP2;P2;SDS_P1;SDS_P2;PMS_P1;PMS_P2;Temp;Humidity;BMP_temperature;BMP_pressure;BME280_temperature;BME280_humidity;BME280_pressure;Samples;Min_cycle;Max_cycle;Signal;HPM_P1;HPM_P2
2021/12/27 00:00:52;;;;;;;70.32;23.85;;;7.50;95.90;;;;;;6250372;28;20507;-80
2021/12/27 00:03:56;;;;;;;60.78;19.92;;;7.60;95.90;;;;;;6251128;28;20124;-80
2021/12/27 00:06:59;;;;;;;43.58;17.98;;;7.50;95.70;;;;;;6249936;28;20068;-80
2021/12/27 00:10:01;;;;;;;49.70;17.25;;;7.50;95.60;;;;;;6250880;28;20049;-80
2021/12/27 00:13:04;;;;;;;56.10;18.33;;;7.50;95.80;;;;;;6250141;28;20053;-81
2021/12/27 00:16:08;;;;;;;52.20;19.60;;;7.50;95.70;;;;;;6249396;28;20056;-80
2021/12/27 00:19:10;;;;;;;54.53;18.20;;;7.50;95.90;;;;;;6250814;28;20061;-80
2021/12/27 00:22:13;;;;;;;48.05;16.67;;;7.50;95.60;;;;;;6249374;28;20069;-80
2021/12/27 00:25:16;;;;;;;53.60;16.67;;;7.40;95.60;;;;;;6248494;28;20050;-80
2021/12/27 00:28:18;;;;;;;46.15;17.45;;;7.40;95.50;;;;;;6250390;28;20055;-80
2021/12/27 00:31:20;;;;;;;55.42;17.48;;;7.40;95.90;;;;;;6250106;28;20143;-80
2021/12/27 00:34:22;;;;;;;51.20;18.10;;;7.40;96.00;;;;;;6251928;28;20053;-81
2021/12/27 00:37:25;;;;;;;47.70;18.02;;;7.40;96.10;;;;;;6249848;28;20045;-80
2021/12/27 00:40:27;;;;;;;50.72;18.77;;;7.40;96.10;;;;;;6249895;28;20491;-80
2021/12/27 00:43:28;;;;;;;54.25;18.02;;;7.30;95.90;;;;;;6249054;28;20589;-80
2021/12/27 00:46:30;;;;;;;53.88;17.95;;;7.30;96.10;;;;;;6250214;28;20049;-81
2021/12/27 00:49:32;;;;;;;56.25;18.85;;;7.30;96.20;;;;;;6249503;28;20514;-81
2021/12/27 00:52:36;;;;;;;46.20;16.70;;;7.30;96.20;;;;;;6249504;28;20388;-81
2021/12/27 00:55:38;;;;;;;57.67;19.13;;;7.30;96.50;;;;;;6249797;28;20052;-80
2021/12/27 00:58:40;;;;;;;57.38;17.40;;;7.30;96.30;;;;;;6249941;28;20049;-79
2021/12/27 01:01:42;;;;;;;52.75;18.25;;;7.40;96.40;;;;;;6249458;28;20045;-81
2021/12/27 01:04:43;;;;;;;60.85;18.00;;;7.40;96.30;;;;;;6248431;28;20132;-81
2021/12/27 01:07:46;;;;;;;55.70;17.98;;;7.40;96.20;;;;;;6248807;28;20046;-81
2021/12/27 01:11:01;;;;;;;57.05;18.85;;;7.40;96.20;;;;;;6250936;28;20105;-79
2021/12/27 01:14:09;;;;;;;59.22;17.98;;;7.40;96.20;;;;;;6274667;28;20049;-80
2021/12/27 01:17:12;;;;;;;57.97;19.85;;;7.50;96.30;;;;;;6260267;28;20052;-81
2021/12/27 01:20:17;;;;;;;67.93;17.42;;;7.40;96.00;;;;;;6251034;28;20148;-80
2021/12/27 01:23:21;;;;;;;63.28;19.95;;;7.40;96.00;;;;;;6250619;28;20045;-81
2021/12/27 01:26:25;;;;;;;75.38;20.48;;;7.40;96.20;;;;;;6250067;28;20093;-81
2021/12/27 01:29:27;;;;;;;68.38;18.48;;;7.30;96.20;;;;;;6249270;28;20052;-80
2021/12/27 01:32:33;;;;;;;87.63;22.17;;;7.40;96.30;;;;;;6248380;28;20050;-79
2021/12/27 01:35:36;;;;;;;92.55;21.85;;;7.30;96.20;;;;;;6248395;28;20060;-79
2021/12/27 01:38:40;;;;;;;79.68;20.73;;;7.30;96.10;;;;;;6252886;28;20052;-81
2021/12/27 01:41:42;;;;;;;74.30;19.35;;;7.20;96.30;;;;;;6253328;28;20041;-81
2021/12/27 01:44:45;;;;;;;107.78;24.35;;;7.20;96.20;;;;;;6253372;28;20049;-80
2021/12/27 01:47:46;;;;;;;85.97;21.30;;;7.10;96.30;;;;;;6252974;28;20132;-80
2021/12/27 01:50:51;;;;;;;94.63;24.65;;;7.20;96.40;;;;;;6254341;28;20188;-80
2021/12/27 01:53:55;;;;;;;87.05;20.27;;;7.20;96.30;;;;;;6254027;28;20056;-80
2021/12/27 01:56:57;;;;;;;102.20;22.77;;;7.30;96.40;;;;;;6253551;28;20155;-81
2021/12/27 01:59:59;;;;;;;87.63;24.30;;;7.30;96.40;;;;;;6253125;28;20482;-80
2021/12/27 02:03:03;;;;;;;114.90;23.83;;;7.40;96.20;;;;;;6254083;28;20057;-80
2021/12/27 02:06:06;;;;;;;117.75;24.95;;;7.30;96.20;;;;;;6252822;28;20143;-80
2021/12/27 02:09:09;;;;;;;127.50;26.85;;;7.30;96.00;;;;;;6253273;28;20588;-80
2021/12/27 02:12:11;;;;;;;111.00;24.20;;;7.30;96.20;;;;;;6253551;28;20440;-80
2021/12/27 02:15:14;;;;;;;176.60;28.48;;;7.30;96.10;;;;;;6253825;28;20060;-80
2021/12/27 02:18:16;;;;;;;111.95;25.38;;;7.30;96.30;;;;;;6253318;28;20499;-80
2021/12/27 02:21:20;;;;;;;117.53;25.90;;;7.30;96.20;;;;;;6253567;28;20056;-80
2021/12/27 02:24:21;;;;;;;159.15;28.75;;;7.30;96.20;;;;;;6252936;28;20046;-80
2021/12/27 02:27:23;;;;;;;175.38;29.83;;;7.30;96.20;;;;;;6252552;28;20056;-81
2021/12/27 02:30:25;;;;;;;135.88;27.38;;;7.30;96.30;;;;;;6253754;28;20051;-80
2021/12/27 02:33:27;;;;;;;112.63;25.77;;;7.40;96.30;;;;;;6252980;28;20041;-80
2021/12/27 02:36:30;;;;;;;108.10;25.05;;;7.40;96.30;;;;;;6251962;28;20041;-80
2021/12/27 02:39:32;;;;;;;207.85;33.58;;;7.40;96.30;;;;;;6252582;28;20057;-80
2021/12/27 02:42:33;;;;;;;200.60;31.48;;;7.50;96.20;;;;;;6252685;28;20057;-80
2021/12/27 02:45:38;;;;;;;118.32;27.30;;;7.50;96.10;;;;;;6251579;28;20256;-80
2021/12/27 02:48:42;;;;;;;84.72;24.33;;;7.40;95.90;;;;;;6251682;28;20050;-80
2021/12/27 02:51:45;;;;;;;125.43;24.27;;;7.40;95.90;;;;;;6251814;28;20431;-81
2021/12/27 02:54:47;;;;;;;140.50;28.73;;;7.40;96.00;;;;;;6252432;28;20467;-80
2021/12/27 02:57:50;;;;;;;144.05;26.70;;;7.30;96.20;;;;;;6253192;28;20392;-80
2021/12/27 03:00:55;;;;;;;93.18;22.60;;;7.40;96.40;;;;;;6252601;28;20332;-80
2021/12/27 03:03:57;;;;;;;110.30;22.92;;;7.50;96.30;;;;;;6252635;28;20045;-81
2021/12/27 03:07:00;;;;;;;151.80;29.50;;;7.50;96.20;;;;;;6252428;28;20132;-80
2021/12/27 03:10:01;;;;;;;117.18;25.50;;;7.50;96.00;;;;;;6251976;28;20131;-80
2021/12/27 03:13:04;;;;;;;93.28;23.17;;;7.40;96.10;;;;;;6252090;28;20510;-79
2021/12/27 03:16:09;;;;;;;99.13;22.15;;;7.40;96.10;;;;;;6251846;28;20053;-80
2021/12/27 03:19:12;;;;;;;87.45;21.30;;;7.40;96.20;;;;;;6252283;28;20045;-81
2021/12/27 03:22:15;;;;;;;87.82;22.08;;;7.50;96.30;;;;;;6251402;28;20057;-80
2021/12/27 03:25:22;;;;;;;100.35;25.15;;;7.60;96.40;;;;;;6251949;28;20113;-80
2021/12/27 03:28:24;;;;;;;85.65;22.83;;;7.70;96.30;;;;;;6251915;28;20128;-80
2021/12/27 03:31:26;;;;;;;98.80;22.23;;;7.70;96.20;;;;;;6251749;28;20530;-80
2021/12/27 03:34:28;;;;;;;108.03;25.15;;;7.80;96.10;;;;;;6251839;28;20053;-80
2021/12/27 03:37:31;;;;;;;85.28;22.00;;;7.80;96.10;;;;;;6251741;28;20115;-80
2021/12/27 03:40:33;;;;;;;91.72;21.45;;;7.90;96.00;;;;;;6251340;28;20132;-79
2021/12/27 03:43:35;;;;;;;86.85;21.77;;;7.90;95.90;;;;;;6253187;28;20063;-79
2021/12/27 03:46:37;;;;;;;87.65;20.90;;;7.90;95.90;;;;;;6254116;28;20049;-80
2021/12/27 03:49:39;;;;;;;75.63;20.88;;;8.00;95.90;;;;;;6253322;28;20073;-80
2021/12/27 03:52:42;;;;;;;77.57;22.33;;;7.90;96.20;;;;;;6251788;28;20045;-80
2021/12/27 03:55:44;;;;;;;89.50;21.05;;;7.90;95.80;;;;;;6250449;28;20341;-80
2021/12/27 03:58:53;;;;;;;89.72;22.13;;;8.00;95.90;;;;;;6251277;28;20053;-80
2021/12/27 04:01:55;;;;;;;84.68;23.13;;;8.00;95.80;;;;;;6249583;28;20103;-80
2021/12/27 04:04:57;;;;;;;79.53;20.60;;;8.00;95.80;;;;;;6249911;28;20419;-81
2021/12/27 04:08:09;;;;;;;86.38;22.48;;;8.00;95.70;;;;;;6250101;28;20136;-80
2021/12/27 04:11:11;;;;;;;90.63;22.23;;;8.00;95.60;;;;;;6251006;28;20134;-80
2021/12/27 04:14:12;;;;;;;106.85;24.10;;;7.80;95.30;;;;;;6250102;28;20053;-80
2021/12/27 04:17:14;;;;;;;100.00;23.85;;;7.60;95.60;;;;;;6250346;28;20049;-81
2021/12/27 04:20:16;;;;;;;94.68;21.63;;;7.50;95.70;;;;;;6249910;28;20411;-80
2021/12/27 04:23:19;;;;;;;75.13;19.83;;;7.40;96.00;;;;;;6249773;28;20060;-80
2021/12/27 04:26:22;;;;;;;68.75;19.38;;;7.30;96.20;;;;;;6250026;28;20049;-80
2021/12/27 04:29:24;;;;;;;61.38;19.33;;;7.30;96.50;;;;;;6249742;28;20128;-80
2021/12/27 04:32:26;;;;;;;66.40;19.42;;;7.40;96.60;;;;;;6250077;28;20136;-81
2021/12/27 04:35:28;;;;;;;65.18;18.42;;;7.30;96.40;;;;;;6249606;28;20144;-82
2021/12/27 04:38:31;;;;;;;71.45;19.40;;;7.30;96.60;;;;;;6250749;28;20042;-80
2021/12/27 04:41:33;;;;;;;59.38;18.08;;;7.30;96.90;;;;;;6263882;28;20554;-80
2021/12/27 04:44:35;;;;;;;58.35;18.70;;;7.40;97.00;;;;;;6264367;28;20041;-80
2021/12/27 04:47:36;;;;;;;59.10;18.58;;;7.50;97.00;;;;;;6245645;28;20045;-81
2021/12/27 04:50:39;;;;;;;69.75;19.05;;;7.50;96.90;;;;;;6252036;28;20053;-78
2021/12/27 04:53:42;;;;;;;63.67;18.35;;;7.60;96.70;;;;;;6253415;28;20069;-81
2021/12/27 04:56:46;;;;;;;56.70;17.92;;;7.60;96.60;;;;;;6247061;28;20128;-82
2021/12/27 04:59:47;;;;;;;82.53;20.48;;;7.70;96.60;;;;;;6248403;28;20392;-82
2021/12/27 05:02:49;;;;;;;67.72;18.65;;;7.70;96.40;;;;;;6248708;28;20419;-81
2021/12/27 05:05:51;;;;;;;53.90;17.52;;;7.60;96.40;;;;;;6247968;28;20056;-80
2021/12/27 05:08:54;;;;;;;85.05;21.73;;;7.70;96.40;;;;;;6247792;28;20041;-82
2021/12/27 05:11:56;;;;;;;60.95;18.58;;;7.60;96.30;;;;;;6247297;28;20053;-80
2021/12/27 05:14:58;;;;;;;74.30;18.88;;;7.60;96.50;;;;;;6247736;28;20491;-81
2021/12/27 05:18:00;;;;;;;58.28;17.33;;;7.70;96.70;;;;;;6247486;28;20041;-81
2021/12/27 05:21:02;;;;;;;54.25;18.65;;;7.80;96.60;;;;;;6247272;28;20077;-80
2021/12/27 05:24:07;;;;;;;56.85;19.00;;;7.90;96.40;;;;;;6250170;28;20077;-85
2021/12/27 05:27:09;;;;;;;80.22;20.02;;;7.80;96.10;;;;;;6253180;28;20049;-84
2021/12/27 05:30:13;;;;;;;48.97;17.63;;;7.80;96.20;;;;;;6251976;28;20511;-84
2021/12/27 05:33:16;;;;;;;64.88;18.65;;;7.80;96.40;;;;;;6251959;28;20088;-84
2021/12/27 05:36:18;;;;;;;58.72;18.33;;;7.90;96.40;;;;;;6251368;28;20057;-83
2021/12/27 05:39:22;;;;;;;60.25;17.00;;;7.90;96.30;;;;;;6250841;28;20050;-80
2021/12/27 05:42:23;;;;;;;60.67;18.67;;;7.90;96.10;;;;;;6248673;28;20507;-82
2021/12/27 05:45:25;;;;;;;48.17;17.50;;;7.80;95.80;;;;;;6248684;28;20435;-81
2021/12/27 05:48:27;;;;;;;60.25;18.10;;;7.80;95.90;;;;;;6250254;28;20045;-82
2021/12/27 05:51:29;;;;;;;69.35;18.42;;;7.70;96.00;;;;;;6252034;28;20046;-81
2021/12/27 05:54:32;;;;;;;57.20;15.93;;;7.70;96.20;;;;;;6251023;28;20045;-82
2021/12/27 05:57:34;;;;;;;59.15;17.33;;;7.80;96.50;;;;;;6251204;28;20038;-82
2021/12/27 06:00:36;;;;;;;54.70;17.15;;;7.90;96.10;;;;;;6251455;28;20057;-82
2021/12/27 06:03:38;;;;;;;67.45;18.85;;;7.90;96.20;;;;;;6251194;28;20406;-82
2021/12/27 06:06:40;;;;;;;62.15;18.17;;;7.90;96.10;;;;;;6251471;28;20045;-82
2021/12/27 06:09:43;;;;;;;49.60;17.95;;;8.00;96.00;;;;;;6250696;28;20447;-81
2021/12/27 06:12:46;;;;;;;57.92;19.08;;;8.00;95.90;;;;;;6250602;28;20107;-82
2021/12/27 06:15:48;;;;;;;61.97;17.58;;;7.90;95.50;;;;;;6251096;28;20456;-80
2021/12/27 06:18:49;;;;;;;52.67;16.98;;;7.90;95.90;;;;;;6254195;28;20673;-83
2021/12/27 06:21:52;;;;;;;52.38;18.33;;;7.90;96.00;;;;;;6252304;28;20056;-82
2021/12/27 06:24:56;;;;;;;57.80;18.98;;;8.00;96.00;;;;;;6252352;28;20049;-80
2021/12/27 06:27:58;;;;;;;54.83;16.67;;;8.00;95.90;;;;;;6256853;28;20049;-82
2021/12/27 06:30:59;;;;;;;49.63;16.55;;;8.10;95.80;;;;;;6257902;28;20057;-82
2021/12/27 06:34:01;;;;;;;57.40;18.27;;;8.00;95.60;;;;;;6257883;28;20052;-82
2021/12/27 06:37:03;;;;;;;50.33;16.33;;;8.00;95.50;;;;;;6258509;28;20045;-82
2021/12/27 06:40:08;;;;;;;56.42;17.90;;;7.90;95.60;;;;;;6259013;28;20053;-82
2021/12/27 06:43:10;;;;;;;49.95;16.67;;;8.00;95.80;;;;;;6258160;28;20061;-83
2021/12/27 06:46:11;;;;;;;49.63;15.95;;;8.00;95.70;;;;;;6258217;28;20042;-83
2021/12/27 06:49:14;;;;;;;57.15;17.83;;;8.00;95.70;;;;;;6258776;28;20041;-82
2021/12/27 06:52:16;;;;;;;56.03;17.77;;;8.10;95.70;;;;;;6257544;28;20064;-82
2021/12/27 06:55:19;;;;;;;59.63;17.38;;;8.10;95.70;;;;;;6255962;28;20191;-81
2021/12/27 06:58:21;;;;;;;60.67;15.90;;;8.10;95.70;;;;;;6262784;28;20140;-83
2021/12/27 07:01:23;;;;;;;50.22;15.95;;;8.10;95.60;;;;;;6257342;28;20046;-83
2021/12/27 07:04:26;;;;;;;56.22;16.02;;;8.10;95.50;;;;;;6256159;28;20050;-82
2021/12/27 07:07:28;;;;;;;54.33;16.95;;;8.10;95.60;;;;;;6257055;28;20100;-82
2021/12/27 07:10:32;;;;;;;61.58;18.27;;;8.20;95.60;;;;;;6257609;28;20499;-81
2021/12/27 07:13:34;;;;;;;60.92;19.20;;;8.20;95.40;;;;;;6258565;28;20041;-81
2021/12/27 07:16:36;;;;;;;61.75;17.77;;;8.10;95.30;;;;;;6257151;28;20046;-83
2021/12/27 07:19:37;;;;;;;53.30;18.10;;;8.10;95.80;;;;;;6255649;28;20052;-83
2021/12/27 07:22:40;;;;;;;54.20;16.83;;;8.10;95.40;;;;;;6257083;28;20140;-83
2021/12/27 07:25:43;;;;;;;50.30;17.02;;;8.00;95.10;;;;;;6255178;28;20053;-83
2021/12/27 07:28:45;;;;;;;49.88;14.93;;;7.90;95.40;;;;;;6257216;28;20105;-80
2021/12/27 07:31:46;;;;;;;57.38;15.95;;;7.90;95.30;;;;;;6256963;28;20120;-83
2021/12/27 07:34:48;;;;;;;48.88;15.68;;;7.90;95.30;;;;;;6255881;28;20049;-82
2021/12/27 07:37:51;;;;;;;50.88;15.32;;;8.00;95.50;;;;;;6246355;28;20073;-82
2021/12/27 07:40:54;;;;;;;46.92;14.43;;;8.00;95.40;;;;;;6255720;28;20038;-82
2021/12/27 07:43:56;;;;;;;60.83;15.85;;;8.00;95.30;;;;;;6255812;28;20041;-83
2021/12/27 07:46:58;;;;;;;68.53;17.23;;;7.90;95.30;;;;;;6256104;28;20060;-83
2021/12/27 07:49:59;;;;;;;67.00;18.88;;;7.90;95.40;;;;;;6255780;28;20132;-81
2021/12/27 07:53:01;;;;;;;57.88;17.60;;;8.00;95.60;;;;;;6257426;28;20045;-82
2021/12/27 07:56:06;;;;;;;62.63;19.80;;;8.10;95.60;;;;;;6256837;28;20042;-83
2021/12/27 07:59:09;;;;;;;55.35;18.27;;;8.20;95.70;;;;;;6256281;28;20072;-83
2021/12/27 08:02:11;;;;;;;51.75;17.92;;;8.30;95.60;;;;;;6256142;28;20056;-82
2021/12/27 08:05:14;;;;;;;53.75;18.50;;;8.30;95.20;;;;;;6255761;28;20110;-83
2021/12/27 08:08:16;;;;;;;57.05;17.38;;;8.30;95.20;;;;;;6260482;28;20045;-83
2021/12/27 08:11:20;;;;;;;50.42;16.80;;;8.20;95.00;;;;;;6265590;28;20053;-83
2021/12/27 08:14:21;;;;;;;70.93;19.88;;;8.10;95.10;;;;;;6264916;28;20049;-83
2021/12/27 08:17:23;;;;;;;55.78;18.42;;;8.10;95.50;;;;;;6255610;28;20116;-83
2021/12/27 08:20:25;;;;;;;72.18;22.38;;;8.40;95.90;;;;;;6255724;28;20041;-82
2021/12/27 08:23:27;;;;;;;66.88;20.92;;;8.60;96.00;;;;;;6255014;28;20439;-82
2021/12/27 08:26:30;;;;;;;68.93;22.00;;;8.90;95.90;;;;;;6257444;28;20052;-83
2021/12/27 08:29:32;;;;;;;66.32;21.77;;;9.10;95.80;;;;;;6255852;28;20067;-82
2021/12/27 08:32:34;;;;;;;76.55;22.25;;;9.20;95.70;;;;;;6256166;28;20041;-82
2021/12/27 08:35:37;;;;;;;65.53;21.73;;;9.40;95.60;;;;;;6256860;28;20053;-81
2021/12/27 08:38:38;;;;;;;55.10;19.65;;;9.50;95.40;;;;;;6258811;28;20514;-81
2021/12/27 08:41:42;;;;;;;62.78;21.05;;;9.50;95.20;;;;;;6259978;28;20045;-79
2021/12/27 08:44:44;;;;;;;57.83;20.83;;;9.60;95.40;;;;;;6267292;28;20076;-80
2021/12/27 08:47:47;;;;;;;55.67;21.17;;;9.70;95.40;;;;;;6264311;28;20052;-80
2021/12/27 08:50:49;;;;;;;54.55;19.42;;;9.80;95.40;;;;;;6262513;28;20072;-82
2021/12/27 08:53:51;;;;;;;56.70;21.75;;;10.00;95.50;;;;;;6261563;28;20049;-80
2021/12/27 08:56:54;;;;;;;42.15;17.05;;;10.10;95.40;;;;;;6255954;28;20055;-82
2021/12/27 08:59:56;;;;;;;44.22;17.48;;;10.20;94.90;;;;;;6254988;28;20065;-80
2021/12/27 09:02:59;;;;;;;47.92;17.30;;;10.20;95.30;;;;;;6257953;28;20050;-79
2021/12/27 09:06:01;;;;;;;40.80;18.90;;;10.30;95.40;;;;;;6253436;28;20045;-82
2021/12/27 09:09:04;;;;;;;39.80;16.73;;;10.60;95.50;;;;;;6253536;28;20041;-81
2021/12/27 09:12:09;;;;;;;33.78;16.38;;;10.90;95.50;;;;;;6256593;28;20087;-83
2021/12/27 09:15:14;;;;;;;28.83;14.77;;;10.90;95.00;;;;;;6254199;28;20075;-82
2021/12/27 09:18:15;;;;;;;29.67;13.88;;;11.00;94.90;;;;;;6253436;28;20132;-82
2021/12/27 09:21:17;;;;;;;24.90;12.80;;;11.20;95.20;;;;;;6252916;28;20609;-81
2021/12/27 09:24:19;;;;;;;19.92;10.68;;;11.40;95.10;;;;;;6253444;28;20047;-82
2021/12/27 09:27:22;;;;;;;15.57;9.90;;;11.50;94.70;;;;;;6252878;28;20080;-82
2021/12/27 09:30:25;;;;;;;21.20;10.68;;;11.50;94.70;;;;;;6254381;28;20521;-82
2021/12/27 09:33:27;;;;;;;18.65;10.25;;;11.60;95.00;;;;;;6253497;28;20132;-82
2021/12/27 09:36:28;;;;;;;13.85;8.60;;;11.70;94.70;;;;;;6251572;28;20128;-81
2021/12/27 09:39:30;;;;;;;13.40;9.77;;;11.90;94.90;;;;;;6251821;28;20129;-81
2021/12/27 09:42:35;;;;;;;13.25;6.85;;;12.10;95.10;;;;;;6251277;28;20057;-80
2021/12/27 09:45:38;;;;;;;12.02;7.63;;;12.50;95.10;;;;;;6251086;28;20446;-81
2021/12/27 09:48:40;;;;;;;13.77;7.75;;;12.80;95.30;;;;;;6252193;28;20101;-81
2021/12/27 09:51:43;;;;;;;10.77;5.60;;;13.20;95.00;;;;;;6251200;28;20045;-81
2021/12/27 09:54:47;;;;;;;8.25;4.93;;;13.40;94.30;;;;;;6250902;28;20529;-81
2021/12/27 09:57:50;;;;;;;9.57;5.47;;;13.70;93.20;;;;;;6251982;28;20046;-81
2021/12/27 10:00:52;;;;;;;6.70;4.05;;;13.70;93.90;;;;;;6224764;28;20147;-82
2021/12/27 10:03:56;;;;;;;6.90;4.22;;;13.70;94.00;;;;;;6255777;28;20049;-81
2021/12/27 10:06:57;;;;;;;5.85;3.88;;;14.20;94.40;;;;;;6258958;28;20536;-85
2021/12/27 10:10:00;;;;;;;5.57;3.35;;;14.40;94.30;;;;;;6259954;28;20041;-85
2021/12/27 10:13:08;;;;;;;6.13;3.47;;;14.80;94.10;;;;;;6235604;28;20053;-86
2021/12/27 10:16:14;;;;;;;5.78;2.70;;;15.10;93.70;;;;;;6236678;28;20068;-85
2021/12/27 10:19:18;;;;;;;4.78;2.50;;;15.30;93.10;;;;;;6234817;28;20050;-85
2021/12/27 10:22:21;;;;;;;4.03;2.55;;;15.50;92.50;;;;;;6235502;28;20061;-82
2021/12/27 10:25:25;;;;;;;4.85;2.63;;;15.30;91.70;;;;;;6232217;28;20521;-83
2021/12/27 10:28:28;;;;;;;4.65;2.45;;;15.30;92.50;;;;;;6233514;28;20053;-85
2021/12/27 10:31:30;;;;;;;7.60;4.55;;;15.50;93.20;;;;;;6239950;28;20051;-86
2021/12/27 10:34:35;;;;;;;13.55;5.03;;;15.80;93.30;;;;;;6257638;28;20072;-84
2021/12/27 10:37:38;;;;;;;8.30;2.40;;;16.30;93.00;;;;;;6256603;28;20514;-86
2021/12/27 10:40:47;;;;;;;4.82;2.65;;;16.80;93.10;;;;;;6256612;28;20093;-83
2021/12/27 10:43:54;;;;;;;5.38;3.10;;;17.40;93.00;;;;;;6255144;28;20466;-85
2021/12/27 10:46:56;;;;;;;4.47;2.57;;;17.80;92.60;;;;;;6255661;28;20049;-82
2021/12/27 10:50:03;;;;;;;6.78;2.63;;;17.90;91.70;;;;;;6254313;28;20049;-84
2021/12/27 10:53:07;;;;;;;3.85;2.20;;;18.20;91.90;;;;;;6255710;28;20049;-85
2021/12/27 10:56:08;;;;;;;5.55;2.17;;;18.40;91.60;;;;;;6255759;28;20072;-84
2021/12/27 10:59:17;;;;;;;5.13;2.30;;;18.40;91.10;;;;;;6255739;28;20045;-86
2021/12/27 11:02:19;;;;;;;3.92;2.35;;;18.60;91.70;;;;;;6255458;28;20049;-84
2021/12/27 11:05:23;;;;;;;2.63;2.05;;;18.90;91.70;;;;;;6254880;28;20179;-84
2021/12/27 11:08:26;;;;;;;3.97;2.03;;;19.00;91.00;;;;;;6253992;28;20064;-84
2021/12/27 11:11:28;;;;;;;4.28;1.88;;;18.90;90.40;;;;;;6255847;28;20050;-81
2021/12/27 11:14:31;;;;;;;6.15;2.30;;;18.80;90.30;;;;;;6259807;28;20489;-83
2021/12/27 11:17:33;;;;;;;5.15;1.90;;;18.60;90.20;;;;;;6258955;28;20619;-84
2021/12/27 11:20:36;;;;;;;2.97;1.60;;;18.40;90.00;;;;;;6259489;28;20109;-83
2021/12/27 11:23:41;;;;;;;3.38;2.08;;;18.20;89.60;;;;;;6257909;28;20619;-85
2021/12/27 11:26:44;;;;;;;5.88;2.53;;;18.00;89.20;;;;;;6258598;28;20060;-85
2021/12/27 11:33:14;;;;;;;5.70;2.50;;;17.80;89.00;;;;;;6306361;27;20464;-83
2021/12/27 11:36:16;;;;;;;6.30;2.80;;;17.20;88.90;;;;;;6251034;28;20041;-83
2021/12/27 11:39:24;;;;;;;6.90;3.75;;;17.00;89.60;;;;;;6253197;28;20049;-83
2021/12/27 11:42:26;;;;;;;5.72;2.80;;;16.90;89.10;;;;;;6267341;28;20068;-82
2021/12/27 11:45:43;;;;;;;5.88;3.30;;;16.60;88.90;;;;;;6278479;28;20113;-83
2021/12/27 11:48:48;;;;;;;5.72;3.75;;;16.40;89.30;;;;;;6277050;28;20048;-81
2021/12/27 11:51:53;;;;;;;6.72;4.93;;;16.30;90.20;;;;;;6277570;28;20056;-81
2021/12/27 11:54:58;;;;;;;5.97;3.80;;;16.20;90.10;;;;;;6276492;28;20083;-82
2021/12/27 11:57:59;;;;;;;6.60;4.03;;;16.00;90.00;;;;;;6275015;28;20682;-83
2021/12/27 12:01:02;;;;;;;10.35;3.70;;;15.80;90.00;;;;;;6271068;28;20042;-80
2021/12/27 12:04:05;;;;;;;4.60;3.05;;;15.70;90.30;;;;;;6266218;28;20088;-79
2021/12/27 12:07:07;;;;;;;7.82;3.85;;;15.50;90.20;;;;;;6251760;28;20052;-81
2021/12/27 12:10:14;;;;;;;10.40;3.35;;;15.40;90.20;;;;;;6242584;28;20129;-83
2021/12/27 12:13:18;;;;;;;9.82;3.70;;;15.30;90.60;;;;;;6225786;28;20046;-82
2021/12/27 12:16:23;;;;;;;5.75;3.55;;;15.40;90.80;;;;;;6224893;28;20046;-81
2021/12/27 12:19:41;;;;;;;6.95;3.95;;;15.50;90.90;;;;;;6224324;28;20046;-83
2021/12/27 12:22:43;;;;;;;;;;;15.70;90.20;;;;;;6225100;28;20061;-81
2021/12/27 12:25:45;;;;;;;7.53;2.47;;;15.80;89.50;;;;;;6223849;28;19976;-82
2021/12/27 12:28:46;;;;;;;5.30;2.67;;;15.90;90.10;;;;;;6224970;28;20050;-82
2021/12/27 12:31:53;;;;;;;7.53;3.72;;;15.90;90.00;;;;;;6239622;28;20048;-80
2021/12/27 12:34:57;;;;;;;8.27;3.28;;;15.90;89.40;;;;;;6262755;28;20558;-83
2021/12/27 12:38:13;;;;;;;7.47;3.20;;;15.80;89.30;;;;;;6270838;28;20121;-81
2021/12/27 12:41:18;;;;;;;5.20;3.58;;;15.70;89.40;;;;;;6272489;28;20065;-80
2021/12/27 12:44:20;;;;;;;9.10;3.80;;;15.60;89.10;;;;;;6251357;28;20046;-79
2021/12/27 12:47:24;;;;;;;5.60;4.07;;;15.40;89.60;;;;;;6230035;28;20081;-83
2021/12/27 12:50:27;;;;;;;7.65;3.88;;;15.30;89.50;;;;;;6232783;28;20061;-83
2021/12/27 12:53:31;;;;;;;54.25;28.13;;;15.20;90.50;;;;;;6230420;28;20077;-83
2021/12/27 12:56:35;;;;;;;11.25;6.47;;;15.20;90.10;;;;;;6232110;28;20050;-81
2021/12/27 12:59:42;;;;;;;5.20;3.90;;;15.20;90.40;;;;;;6231038;28;20042;-81
2021/12/27 13:02:44;;;;;;;6.22;4.00;;;15.20;90.00;;;;;;6233895;28;20050;-82
2021/12/27 13:05:57;;;;;;;22.10;5.30;;;15.20;89.80;;;;;;6252287;28;20124;-83
2021/12/27 13:09:02;;;;;;;12.82;5.88;;;15.10;90.00;;;;;;6255824;28;20052;-83
2021/12/27 13:12:05;;;;;;;9.23;4.72;;;15.00;90.20;;;;;;6255577;28;20048;-83
2021/12/27 13:15:13;;;;;;;6.50;3.90;;;14.90;90.00;;;;;;6258047;28;20045;-82
2021/12/27 13:18:17;;;;;;;12.75;4.03;;;14.80;90.20;;;;;;6257373;28;20172;-82
2021/12/27 13:21:20;;;;;;;10.25;4.80;;;14.70;90.40;;;;;;6257168;28;20041;-82
2021/12/27 13:24:22;;;;;;;6.55;4.53;;;14.60;90.60;;;;;;6257070;28;20128;-78
2021/12/27 13:27:27;;;;;;;8.75;4.18;;;14.50;90.40;;;;;;6255485;28;20390;-82
2021/12/27 13:30:29;;;;;;;8.07;4.32;;;14.50;90.40;;;;;;6258042;28;20053;-80
2021/12/27 13:33:40;;;;;;;5.00;3.67;;;14.40;90.40;;;;;;6251884;28;20085;-83
2021/12/27 13:36:45;;;;;;;8.35;4.10;;;14.30;90.50;;;;;;6233364;28;20048;-80
2021/12/27 13:39:47;;;;;;;9.10;5.00;;;14.20;90.60;;;;;;6233093;28;20124;-83
2021/12/27 13:42:49;;;;;;;8.98;4.85;;;14.10;90.50;;;;;;6232486;28;20056;-82
2021/12/27 13:45:51;;;;;;;5.85;3.97;;;14.00;90.80;;;;;;6231209;28;20050;-83
2021/12/27 13:48:53;;;;;;;9.43;5.13;;;13.90;91.00;;;;;;6229802;28;20053;-84
2021/12/27 13:52:00;;;;;;;9.18;4.40;;;13.70;91.00;;;;;;6228732;28;20046;-85
2021/12/27 13:55:02;;;;;;;6.60;4.30;;;13.60;91.10;;;;;;6229324;28;20053;-83
2021/12/27 13:58:16;;;;;;;10.65;4.10;;;13.50;91.30;;;;;;6229245;28;20125;-82
2021/12/27 14:01:19;;;;;;;4.78;3.67;;;13.40;91.40;;;;;;6227285;28;20038;-83
2021/12/27 14:04:23;;;;;;;10.02;4.72;;;13.40;91.20;;;;;;6244942;28;20046;-83
2021/12/27 14:07:26;;;;;;;7.05;3.83;;;13.30;91.30;;;;;;6253439;28;20060;-82
2021/12/27 14:10:30;;;;;;;6.85;3.55;;;13.20;91.50;;;;;;6251980;28;20045;-80
2021/12/27 14:13:45;;;;;;;6.25;3.88;;;13.20;91.60;;;;;;6252432;28;20514;-82
2021/12/27 14:16:47;;;;;;;10.13;4.50;;;13.10;91.50;;;;;;6251707;28;20047;-82
2021/12/27 14:20:02;;;;;;;14.73;4.72;;;13.00;91.60;;;;;;6238108;28;20049;-81
2021/12/27 14:23:11;;;;;;;8.32;3.97;;;12.90;91.60;;;;;;6228641;28;20069;-82
2021/12/27 14:26:16;;;;;;;11.18;4.32;;;12.80;91.60;;;;;;6229046;28;20060;-82
2021/12/27 14:29:19;;;;;;;7.72;4.32;;;12.80;91.80;;;;;;6233335;28;20537;-80
2021/12/27 14:32:21;;;;;;;6.07;4.35;;;12.70;91.90;;;;;;6239471;28;20046;-83
2021/12/27 14:35:27;;;;;;;8.95;4.90;;;12.70;92.10;;;;;;6249862;28;20050;-82
2021/12/27 14:38:30;;;;;;;9.65;4.57;;;12.60;92.10;;;;;;6256439;28;20103;-83
2021/12/27 14:41:32;;;;;;;7.20;4.32;;;12.50;92.00;;;;;;6256854;28;20041;-81
2021/12/27 14:44:46;;;;;;;10.10;4.60;;;12.40;92.20;;;;;;6255783;28;20055;-82
2021/12/27 14:47:48;;;;;;;11.43;4.68;;;12.40;92.20;;;;;;6247086;28;20126;-80
2021/12/27 14:50:51;;;;;;;8.10;5.40;;;12.40;92.30;;;;;;6257424;28;20049;-81
2021/12/27 14:53:54;;;;;;;6.95;4.65;;;12.40;92.60;;;;;;6262863;28;20101;-80
2021/12/27 14:56:55;;;;;;;10.02;5.90;;;12.30;92.30;;;;;;6258397;28;20100;-81
2021/12/27 14:59:57;;;;;;;11.52;5.97;;;12.20;92.30;;;;;;6254183;28;20045;-82
2021/12/27 15:02:59;;;;;;;14.73;5.55;;;12.20;92.50;;;;;;6243702;28;20119;-82
2021/12/27 15:06:01;;;;;;;8.75;5.53;;;12.10;92.50;;;;;;6253006;28;20045;-83
2021/12/27 15:09:04;;;;;;;7.13;4.60;;;12.00;92.40;;;;;;6253895;28;20116;-83
2021/12/27 15:12:07;;;;;;;6.72;4.97;;;11.90;92.50;;;;;;6260585;28;20033;-81
2021/12/27 15:15:13;;;;;;;10.48;5.13;;;11.90;92.50;;;;;;6270609;28;20076;-80
2021/12/27 15:18:14;;;;;;;9.55;4.93;;;11.90;92.30;;;;;;6260734;28;20051;-82
2021/12/27 15:21:16;;;;;;;13.73;6.45;;;11.80;92.40;;;;;;6255924;28;20061;-84
2021/12/27 15:24:19;;;;;;;8.63;5.30;;;11.80;92.10;;;;;;6257018;28;20038;-84
2021/12/27 15:27:21;;;;;;;12.13;5.63;;;11.70;92.40;;;;;;6256113;28;20571;-84
2021/12/27 15:30:23;;;;;;;11.50;6.32;;;11.50;92.70;;;;;;6258115;28;20054;-85
2021/12/27 15:33:27;;;;;;;8.73;5.70;;;11.60;92.80;;;;;;6241112;28;20050;-84
2021/12/27 15:36:29;;;;;;;9.65;5.13;;;11.60;92.80;;;;;;6254464;28;20059;-83
2021/12/27 15:39:32;;;;;;;10.77;5.80;;;11.50;92.80;;;;;;6253367;28;20049;-82
2021/12/27 15:42:34;;;;;;;8.93;5.22;;;11.50;92.90;;;;;;6253397;28;20049;-83
2021/12/27 15:45:36;;;;;;;9.35;5.75;;;11.50;92.90;;;;;;6252978;28;20058;-83